createdAt,value
2022-08-26T00:02:12.698Z,19.02
2022-08-26T00:04:42.266Z,19.67
2022-08-26T00:07:11.179Z,22.88
2022-08-26T00:09:40.346Z,14.63
2022-08-26T00:12:12.464Z,18.25
2022-08-26T00:14:41.662Z,16.27
2022-08-26T00:17:09.916Z,18.33
2022-08-26T00:19:38.171Z,22.17
2022-08-26T00:22:07.541Z,12.23
2022-08-26T00:24:35.519Z,16.60
2022-08-26T00:27:03.536Z,15.18
2022-08-26T00:29:34.904Z,18.80
2022-08-26T00:32:06.849Z,13.50
2022-08-26T00:34:35.307Z,16.33
2022-08-26T00:37:03.553Z,16.70
2022-08-26T00:39:36.364Z,17.40
2022-08-26T00:42:04.304Z,18.67
2022-08-26T00:44:32.278Z,13.45
2022-08-26T00:47:05.137Z,18.33
2022-08-26T00:49:38.703Z,13.15
2022-08-26T00:54:46.727Z,13.23
2022-08-26T00:57:17.238Z,12.40
2022-08-26T00:59:47.782Z,15.75
2022-08-26T01:02:19.918Z,22.40
2022-08-26T01:04:54.410Z,20.92
2022-08-26T01:07:25.672Z,19.05
2022-08-26T01:09:55.581Z,17.25
2022-08-26T01:12:25.151Z,17.13
2022-08-26T01:14:53.914Z,16.80
2022-08-26T01:17:22.179Z,15.60
2022-08-26T01:19:53.796Z,15.63
2022-08-26T01:22:28.208Z,21.10
2022-08-26T01:24:59.970Z,15.50
2022-08-26T01:27:32.638Z,24.33
2022-08-26T01:30:02.680Z,22.70
2022-08-26T01:32:32.819Z,14.50
2022-08-26T01:35:02.379Z,16.65
2022-08-26T01:37:34.905Z,19.40
2022-08-26T01:40:06.828Z,22.07
2022-08-26T01:42:35.826Z,12.35
2022-08-26T01:45:10.131Z,15.55
2022-08-26T01:47:39.462Z,18.17
2022-08-26T01:50:20.066Z,15.27
2022-08-26T01:52:58.436Z,18.48
2022-08-26T01:55:32.410Z,16.83
2022-08-26T01:58:05.714Z,15.93
2022-08-26T02:00:34.859Z,15.68
2022-08-26T02:03:17.971Z,16.60
2022-08-26T02:05:53.622Z,20.33
2022-08-26T02:08:26.872Z,15.38
2022-08-26T02:10:56.655Z,20.58
2022-08-26T02:13:27.314Z,15.98
2022-08-26T02:15:56.437Z,16.00
2022-08-26T02:18:26.309Z,17.02
2022-08-26T02:20:57.018Z,16.35
2022-08-26T02:23:25.460Z,16.77
2022-08-26T02:26:01.029Z,19.25
2022-08-26T02:28:32.651Z,13.40
2022-08-26T02:31:00.663Z,18.15
2022-08-26T02:33:31.468Z,18.55
2022-08-26T02:35:59.345Z,17.17
2022-08-26T02:38:27.730Z,16.10
2022-08-26T02:40:57.179Z,20.67
2022-08-26T02:43:32.647Z,14.18
2022-08-26T02:46:02.287Z,14.88
2022-08-26T02:48:31.137Z,22.85
2022-08-26T02:51:01.797Z,20.23
2022-08-26T02:53:32.046Z,17.55
2022-08-26T02:56:05.665Z,18.00
2022-08-26T02:58:33.616Z,26.67
2022-08-26T03:01:02.409Z,16.33
2022-08-26T03:03:33.847Z,19.33
2022-08-26T03:06:02.063Z,17.58
2022-08-26T03:08:29.968Z,20.65
2022-08-26T03:10:58.651Z,20.98
2022-08-26T03:13:30.847Z,15.95
2022-08-26T03:15:58.985Z,15.90
2022-08-26T03:18:26.917Z,17.08
2022-08-26T03:20:54.884Z,17.35
2022-08-26T03:23:23.412Z,17.98
2022-08-26T03:25:52.376Z,13.98
2022-08-26T03:28:20.670Z,20.25
2022-08-26T03:30:49.352Z,19.58
2022-08-26T03:33:18.000Z,14.85
2022-08-26T03:35:47.860Z,20.50
2022-08-26T03:38:19.795Z,20.17
2022-08-26T03:40:47.804Z,19.08
2022-08-26T03:43:17.196Z,17.30
2022-08-26T03:45:45.988Z,14.90
2022-08-26T03:48:15.640Z,21.27
2022-08-26T03:50:43.522Z,20.13
2022-08-26T03:53:13.241Z,18.75
2022-08-26T03:55:42.247Z,17.35
2022-08-26T03:58:11.933Z,16.40
2022-08-26T04:00:39.911Z,14.15
2022-08-26T04:03:09.929Z,22.10
2022-08-26T04:05:39.635Z,19.02
2022-08-26T04:08:07.837Z,16.65
2022-08-26T04:10:38.925Z,22.35
2022-08-26T04:13:07.340Z,21.17
2022-08-26T04:15:35.422Z,21.55
2022-08-26T04:18:03.367Z,13.73
2022-08-26T04:20:31.921Z,20.13
2022-08-26T04:23:01.369Z,16.63
2022-08-26T04:25:29.493Z,21.90
2022-08-26T04:27:57.414Z,23.63
2022-08-26T04:30:25.366Z,18.13
2022-08-26T04:32:53.569Z,18.90
2022-08-26T04:35:25.587Z,16.23
2022-08-26T04:37:55.447Z,17.83
2022-08-26T04:40:27.509Z,27.48
2022-08-26T04:42:56.413Z,19.45
2022-08-26T04:45:25.274Z,25.05
2022-08-26T04:47:57.294Z,16.85
2022-08-26T04:50:26.948Z,13.00
2022-08-26T04:52:56.152Z,16.20
2022-08-26T04:55:38.201Z,22.35
2022-08-26T05:00:39.824Z,15.18
2022-08-26T05:03:10.548Z,21.65
2022-08-26T05:05:40.988Z,17.17
2022-08-26T05:08:09.439Z,16.70
2022-08-26T05:10:45.847Z,18.63
2022-08-26T05:13:15.682Z,18.38
2022-08-26T05:15:45.035Z,26.58
2022-08-26T05:18:14.176Z,29.52
2022-08-26T05:20:43.752Z,17.73
2022-08-26T05:23:12.888Z,16.77
2022-08-26T05:25:41.934Z,16.77
2022-08-26T05:28:11.519Z,22.83
2022-08-26T05:30:41.049Z,19.77
2022-08-26T05:33:10.169Z,19.73
2022-08-26T05:35:39.179Z,18.13
2022-08-26T05:38:12.400Z,24.80
2022-08-26T05:40:43.236Z,21.60
2022-08-26T05:43:13.463Z,20.38
2022-08-26T05:45:46.325Z,22.65
2022-08-26T05:48:16.087Z,28.38
2022-08-26T05:50:46.633Z,22.77
2022-08-26T05:53:16.400Z,29.67
2022-08-26T05:55:48.225Z,23.35
2022-08-26T05:58:20.207Z,17.98
2022-08-26T06:00:57.139Z,23.30
2022-08-26T06:03:25.087Z,23.73
2022-08-26T06:05:53.024Z,20.38
2022-08-26T06:08:21.234Z,20.58
2022-08-26T06:10:51.013Z,19.60
2022-08-26T06:13:23.706Z,28.65
2022-08-26T06:15:52.699Z,25.95
2022-08-26T06:18:23.484Z,22.88
2022-08-26T06:20:57.223Z,23.23
2022-08-26T06:23:44.574Z,22.08
2022-08-26T06:26:13.287Z,21.83
2022-08-26T06:28:45.603Z,15.93
2022-08-26T06:31:14.322Z,23.05
2022-08-26T06:33:42.502Z,25.02
2022-08-26T06:36:10.643Z,25.85
2022-08-26T06:38:38.577Z,17.40
2022-08-26T06:41:10.435Z,21.38
2022-08-26T06:43:39.179Z,22.38
2022-08-26T06:46:11.824Z,23.50
2022-08-26T06:48:40.554Z,31.45
2022-08-26T06:51:13.094Z,19.58
2022-08-26T06:53:43.110Z,19.35
2022-08-26T06:56:12.189Z,32.03
2022-08-26T06:58:41.235Z,19.35
2022-08-26T07:01:18.694Z,26.48
2022-08-26T07:03:49.079Z,19.30
2022-08-26T07:06:19.369Z,21.38
2022-08-26T07:08:47.331Z,21.25
2022-08-26T07:11:15.566Z,20.48
2022-08-26T07:13:44.808Z,26.42
2022-08-26T07:16:17.709Z,21.17
2022-08-26T07:18:46.939Z,23.40
2022-08-26T07:21:18.203Z,21.50
2022-08-26T07:23:46.913Z,24.58
2022-08-26T07:26:18.031Z,28.90
2022-08-26T07:28:47.297Z,26.95
2022-08-26T07:31:17.739Z,19.67
2022-08-26T07:33:46.337Z,20.95
2022-08-26T07:36:15.827Z,26.90
2022-08-26T07:38:45.203Z,18.55
2022-08-26T07:41:14.257Z,23.42
2022-08-26T07:43:43.666Z,25.23
2022-08-26T07:46:16.472Z,19.60
2022-08-26T07:48:46.400Z,23.90
2022-08-26T07:51:15.432Z,17.27
2022-08-26T07:53:43.416Z,19.65
2022-08-26T07:56:16.622Z,25.15
2022-08-26T07:58:47.676Z,20.23
2022-08-26T08:01:18.455Z,25.30
2022-08-26T08:03:48.096Z,24.15
2022-08-26T08:06:18.806Z,25.20
2022-08-26T08:08:47.694Z,21.00
2022-08-26T08:11:20.698Z,24.23
2022-08-26T08:13:48.843Z,19.15
2022-08-26T08:16:17.185Z,24.35
2022-08-26T08:18:45.761Z,20.65
2022-08-26T08:21:21.389Z,21.63
2022-08-26T08:23:50.574Z,20.75
2022-08-26T08:26:18.551Z,32.50
2022-08-26T08:28:47.946Z,19.50
2022-08-26T08:31:45.036Z,17.98
2022-08-26T08:34:10.963Z,16.15
2022-08-26T08:36:40.269Z,22.73
2022-08-26T08:39:09.530Z,22.42
2022-08-26T08:41:54.071Z,21.20
2022-08-26T08:47:02.387Z,12.27
2022-08-26T08:49:31.622Z,17.05
2022-08-26T08:52:05.918Z,22.90
2022-08-26T08:54:34.128Z,20.08
2022-08-26T08:57:10.304Z,16.85
2022-08-26T08:59:50.882Z,25.27
2022-08-26T09:02:24.075Z,21.58
2022-08-26T09:07:39.210Z,23.65
2022-08-26T09:10:25.658Z,18.17
2022-08-26T09:12:54.058Z,20.25
2022-08-26T09:15:30.223Z,23.13
2022-08-26T09:18:10.914Z,25.90
2022-08-26T09:20:50.835Z,14.02
2022-08-26T09:23:20.193Z,21.40
2022-08-26T09:25:51.051Z,18.77
2022-08-26T09:28:22.388Z,16.77
2022-08-26T09:31:11.686Z,21.00
2022-08-26T09:33:41.230Z,23.60
2022-08-26T09:36:24.804Z,25.75
2022-08-26T09:38:55.180Z,22.77
2022-08-26T09:41:31.693Z,25.23
2022-08-26T09:44:18.237Z,20.95
2022-08-26T09:46:55.303Z,25.88
2022-08-26T09:49:36.431Z,26.95
2022-08-26T09:52:20.968Z,21.63
2022-08-26T09:55:03.438Z,25.85
2022-08-26T09:57:34.610Z,23.77
2022-08-26T10:00:03.026Z,29.80
2022-08-26T10:02:47.673Z,13.90
2022-08-26T10:05:20.130Z,20.58
2022-08-26T10:07:51.189Z,32.03
2022-08-26T10:10:26.209Z,18.50
2022-08-26T10:13:10.649Z,23.88
2022-08-26T10:15:50.632Z,26.88
2022-08-26T10:18:23.669Z,29.63
2022-08-26T10:20:57.921Z,30.13
2022-08-26T10:23:28.497Z,18.25
2022-08-26T10:26:03.900Z,32.08
2022-08-26T10:28:38.764Z,22.48
2022-08-26T10:31:29.587Z,16.13
2022-08-26T10:34:06.625Z,18.17
2022-08-26T10:37:15.610Z,26.35
2022-08-26T10:39:46.174Z,36.13
2022-08-26T10:42:23.093Z,25.88
2022-08-26T10:44:58.410Z,22.92
2022-08-26T10:47:34.132Z,24.98
2022-08-26T12:44:53.862Z,26.90
2022-08-26T12:47:30.982Z,15.45
2022-08-26T12:50:17.407Z,12.93
2022-08-26T12:52:56.530Z,14.60
2022-08-26T12:55:27.860Z,11.57
2022-08-26T12:58:12.711Z,11.85
2022-08-26T13:00:47.373Z,6.28
2022-08-26T13:03:43.819Z,14.77
2022-08-26T13:06:27.844Z,9.45
2022-08-26T13:08:58.134Z,8.50
2022-08-26T13:11:28.211Z,6.95
2022-08-26T13:13:59.988Z,10.52
2022-08-26T13:16:29.837Z,9.10
2022-08-26T13:18:59.829Z,8.73
2022-08-26T13:21:32.017Z,12.18
2022-08-26T13:24:08.861Z,10.70
2022-08-26T13:26:36.773Z,11.95
2022-08-26T13:29:10.057Z,8.50
2022-08-26T13:31:42.034Z,7.35
2022-08-26T13:34:11.753Z,11.07
2022-08-26T13:36:40.174Z,11.73
2022-08-26T13:39:08.238Z,13.98
2022-08-26T13:41:36.321Z,11.23
2022-08-26T13:44:04.881Z,15.95
2022-08-26T13:46:33.082Z,9.90
2022-08-26T13:49:03.004Z,12.18
2022-08-26T13:51:31.807Z,9.90
2022-08-26T13:54:00.137Z,12.85
2022-08-26T13:56:30.385Z,10.35
2022-08-26T13:58:59.430Z,8.07
2022-08-26T14:01:28.286Z,7.10
2022-08-26T14:03:56.290Z,10.52
2022-08-26T14:06:26.093Z,9.35
2022-08-26T14:08:54.025Z,10.23
2022-08-26T14:11:22.371Z,11.63
2022-08-26T14:13:50.381Z,11.15
2022-08-26T14:16:23.378Z,10.23
2022-08-26T14:18:51.485Z,13.32
2022-08-26T14:21:20.584Z,7.60
2022-08-26T14:23:49.868Z,17.35
2022-08-26T14:26:28.658Z,14.07
2022-08-26T14:28:58.027Z,11.45
2022-08-26T14:31:26.894Z,10.32
2022-08-26T14:33:57.693Z,9.63
2022-08-26T14:36:32.630Z,9.65
2022-08-26T14:39:05.128Z,19.27
2022-08-26T14:41:34.351Z,12.47
2022-08-26T14:44:05.228Z,11.20
2022-08-26T14:46:38.435Z,9.45
2022-08-26T14:51:38.759Z,12.45
2022-08-26T14:54:13.189Z,12.82
2022-08-26T14:56:45.095Z,11.13
2022-08-26T14:59:13.598Z,13.35
2022-08-26T15:01:41.579Z,12.52
2022-08-26T15:04:09.537Z,11.18
2022-08-26T15:06:38.144Z,11.00
2022-08-26T15:09:08.119Z,14.82
2022-08-26T15:11:36.191Z,16.30
2022-08-26T15:14:04.653Z,12.98
2022-08-26T15:16:33.448Z,12.32
2022-08-26T15:19:04.210Z,8.43
2022-08-26T15:21:32.320Z,11.98
2022-08-26T15:24:01.305Z,13.65
2022-08-26T15:26:31.822Z,12.63
2022-08-26T15:29:03.098Z,11.38
2022-08-26T15:31:34.069Z,9.55
2022-08-26T15:34:05.017Z,7.25
2022-08-26T15:36:33.770Z,11.55
2022-08-26T15:39:02.440Z,10.68
2022-08-26T15:41:34.808Z,9.43
2022-08-26T15:44:04.989Z,9.83
2022-08-26T15:46:33.832Z,8.40
2022-08-26T15:49:03.538Z,10.45
2022-08-26T15:51:33.697Z,15.93
2022-08-26T15:54:03.519Z,12.80
2022-08-26T15:56:37.479Z,11.77
2022-08-26T15:59:08.649Z,10.68
2022-08-26T16:01:37.108Z,7.97
2022-08-26T16:04:05.792Z,9.77
2022-08-26T16:06:36.972Z,10.32
2022-08-26T16:09:06.266Z,10.13
2022-08-26T16:11:37.338Z,10.50
2022-08-26T16:14:05.947Z,10.57
2022-08-26T16:16:34.075Z,13.52
2022-08-26T16:19:06.841Z,11.90
2022-08-26T16:21:35.654Z,15.73
2022-08-26T16:24:04.474Z,10.77
2022-08-26T16:26:34.889Z,15.63
2022-08-26T16:29:08.729Z,13.52
2022-08-26T16:31:37.203Z,8.80
2022-08-26T16:34:05.952Z,12.93
2022-08-26T16:36:34.911Z,11.05
2022-08-26T16:39:03.804Z,10.07
2022-08-26T16:41:32.637Z,11.30
2022-08-26T16:44:00.979Z,12.45
2022-08-26T16:46:31.008Z,12.13
2022-08-26T16:49:01.509Z,11.05
2022-08-26T16:51:29.751Z,13.48
2022-08-26T16:53:59.851Z,13.95
2022-08-26T16:56:33.416Z,19.15
2022-08-26T16:59:02.266Z,15.20
2022-08-26T17:01:31.675Z,11.70
2022-08-26T17:03:59.641Z,9.70
2022-08-26T17:06:27.681Z,11.48
2022-08-26T17:08:55.611Z,12.45
2022-08-26T17:11:23.523Z,13.80
2022-08-26T17:13:51.539Z,12.23
2022-08-26T17:16:22.221Z,13.98
2022-08-26T17:18:53.897Z,10.25
2022-08-26T17:21:21.807Z,12.30
2022-08-26T17:23:50.069Z,12.00
2022-08-26T17:26:17.990Z,12.77
2022-08-26T17:28:45.923Z,15.52
2022-08-26T17:31:14.657Z,15.20
2022-08-26T17:33:42.798Z,13.07
2022-08-26T17:36:12.417Z,16.70
2022-08-26T17:38:41.384Z,13.50
2022-08-26T17:41:10.454Z,14.32
2022-08-26T17:43:39.055Z,16.73
2022-08-26T17:46:10.046Z,11.63
2022-08-26T17:48:39.366Z,12.20
2022-08-26T17:51:09.279Z,14.63
2022-08-26T17:53:38.516Z,17.15
2022-08-26T17:56:08.858Z,16.23
2022-08-26T17:58:37.260Z,15.15
2022-08-26T18:01:06.265Z,14.80
2022-08-26T18:03:35.327Z,14.13
2022-08-26T18:06:08.629Z,17.42
2022-08-26T18:11:09.188Z,13.15
2022-08-26T18:13:37.367Z,16.97
2022-08-26T18:16:07.081Z,14.05
2022-08-26T18:18:35.619Z,14.75
2022-08-26T18:21:04.274Z,15.88
2022-08-26T18:23:32.181Z,15.55
2022-08-26T18:26:00.068Z,18.02
2022-08-26T18:28:29.508Z,18.00
2022-08-26T18:31:00.429Z,15.23
2022-08-26T18:33:28.414Z,17.50
2022-08-26T18:35:56.323Z,20.80
2022-08-26T18:38:24.236Z,17.50
2022-08-26T18:40:56.365Z,14.00
2022-08-26T18:43:24.270Z,17.27
2022-08-26T18:46:04.297Z,16.00
2022-08-26T18:48:32.251Z,14.40
2022-08-26T18:51:00.401Z,16.48
2022-08-26T18:53:29.100Z,14.82
2022-08-26T18:55:57.341Z,17.13
2022-08-26T18:58:25.537Z,15.48
2022-08-26T19:00:53.922Z,13.73
2022-08-26T19:03:23.177Z,16.73
2022-08-26T19:05:51.119Z,19.58
2022-08-26T19:08:18.984Z,14.45
2022-08-26T19:10:46.837Z,17.80
2022-08-26T19:13:16.458Z,16.95
2022-08-26T19:15:46.441Z,18.27
2022-08-26T19:18:15.869Z,17.35
2022-08-26T19:20:47.842Z,16.17
2022-08-26T19:23:33.670Z,17.23
2022-08-26T19:26:04.513Z,17.33
2022-08-26T19:28:32.709Z,20.02
2022-08-26T19:31:00.886Z,17.02
2022-08-26T19:33:29.288Z,22.33
2022-08-26T19:35:58.768Z,20.20
2022-08-26T19:38:27.763Z,16.73
2022-08-26T19:40:55.761Z,18.85
2022-08-26T19:43:23.751Z,18.63
2022-08-26T19:45:51.746Z,24.98
2022-08-26T19:48:19.666Z,17.10
2022-08-26T19:50:47.617Z,21.65
2022-08-26T19:53:16.894Z,21.75
2022-08-26T19:55:44.873Z,22.30
2022-08-26T19:58:12.764Z,27.77
2022-08-26T20:00:42.363Z,26.27
2022-08-26T20:03:10.610Z,21.80
2022-08-26T20:05:41.393Z,17.83
2022-08-26T20:08:09.524Z,20.45
2022-08-26T20:10:51.773Z,20.35
2022-08-26T20:13:19.724Z,16.95
2022-08-26T20:15:47.870Z,18.85
2022-08-26T20:18:29.772Z,18.17
2022-08-26T20:21:16.086Z,19.58
2022-08-26T20:23:44.362Z,16.67
2022-08-26T20:26:13.629Z,16.08
2022-08-26T20:28:41.584Z,18.10
2022-08-26T20:31:10.722Z,18.90
2022-08-26T20:33:46.213Z,13.18
2022-08-26T20:36:15.377Z,14.00
2022-08-26T20:38:43.391Z,14.23
2022-08-26T20:41:11.712Z,10.38
2022-08-26T20:43:42.701Z,15.45
2022-08-26T20:46:16.916Z,13.60
2022-08-26T20:48:46.876Z,11.27
2022-08-26T20:51:15.287Z,12.25
2022-08-26T20:53:44.222Z,13.15
2022-08-26T20:56:14.919Z,16.20
2022-08-26T20:58:44.301Z,15.43
2022-08-26T21:01:19.324Z,12.35
2022-08-26T21:03:47.935Z,16.13
2022-08-26T21:06:15.944Z,16.17
2022-08-26T21:08:44.359Z,12.80
2022-08-26T21:11:13.153Z,14.75
2022-08-26T21:14:01.674Z,17.33
2022-08-26T21:16:30.773Z,14.88
2022-08-26T21:19:00.347Z,15.63
2022-08-26T21:21:29.186Z,17.45
2022-08-26T21:23:57.649Z,13.73
2022-08-26T21:26:25.893Z,15.40
2022-08-26T21:28:54.169Z,12.80
2022-08-26T21:31:23.837Z,11.20
2022-08-26T21:33:53.721Z,13.23
2022-08-26T21:36:21.733Z,13.63
2022-08-26T21:38:49.687Z,12.23
2022-08-26T21:41:23.084Z,13.30
2022-08-26T21:43:53.582Z,13.02
2022-08-26T21:46:23.799Z,12.27
2022-08-26T21:48:56.336Z,12.88
2022-08-26T21:51:26.640Z,15.67
2022-08-26T21:53:56.695Z,11.65
2022-08-26T21:56:27.283Z,13.15
2022-08-26T21:58:56.387Z,12.02
2022-08-26T22:01:27.851Z,15.90
2022-08-26T22:03:57.414Z,11.30
2022-08-26T22:06:28.701Z,12.18
2022-08-26T22:08:57.397Z,13.32
2022-08-26T22:11:26.084Z,18.40
2022-08-26T22:13:56.906Z,13.30
2022-08-26T22:16:26.849Z,13.63
2022-08-26T22:18:55.141Z,14.80
2022-08-26T22:21:26.887Z,13.30
2022-08-26T22:23:57.964Z,13.18
2022-08-26T22:26:28.727Z,10.90
2022-08-26T22:28:58.770Z,16.00
2022-08-26T22:31:37.755Z,20.20
2022-08-26T22:34:08.730Z,14.15
2022-08-26T22:36:43.835Z,12.80
2022-08-26T22:39:13.002Z,13.25
2022-08-26T22:41:41.263Z,14.18
2022-08-26T22:44:09.176Z,14.15
2022-08-26T22:46:38.621Z,15.23
2022-08-26T22:49:06.857Z,16.23
2022-08-26T22:51:34.765Z,13.55
2022-08-26T22:54:04.071Z,15.15
2022-08-26T22:56:31.934Z,14.52
2022-08-26T22:58:59.849Z,12.20
2022-08-26T23:01:27.926Z,15.05
2022-08-26T23:03:55.921Z,14.20
2022-08-26T23:06:24.168Z,13.73
2022-08-26T23:08:53.097Z,14.50
2022-08-26T23:11:22.828Z,14.65
2022-08-26T23:13:50.801Z,12.85
2022-08-26T23:16:18.856Z,13.55
2022-08-26T23:18:47.052Z,13.48
2022-08-26T23:21:15.185Z,16.17
2022-08-26T23:23:44.272Z,12.07
2022-08-26T23:26:16.777Z,13.32
2022-08-26T23:28:47.061Z,20.27
2022-08-26T23:31:15.369Z,13.30
2022-08-26T23:34:00.977Z,15.15
2022-08-26T23:36:30.992Z,14.65
2022-08-26T23:39:02.666Z,23.38
2022-08-26T23:41:30.595Z,15.48
2022-08-26T23:44:03.380Z,17.70
2022-08-26T23:46:32.152Z,12.98
2022-08-26T23:49:00.369Z,15.50
2022-08-26T23:51:46.123Z,15.73
2022-08-26T23:54:16.493Z,12.40
2022-08-26T23:56:44.781Z,17.33
2022-08-26T23:59:14.116Z,18.85
